sensor_id;sensor_type;location;lat;lon;timestamp;P1;durP1;ratioP1;P2;durP2;ratioP2
4756;SDS011;2392;52.578;13.426;2024-03-23T00:54:02;28.53;;;7.20;;
4756;SDS011;2392;52.578;13.426;2024-03-23T00:56:29;28.73;;;6.20;;
4756;SDS011;2392;52.578;13.426;2024-03-23T00:58:54;26.20;;;6.83;;
4756;SDS011;2392;52.578;13.426;2024-03-23T01:01:21;24.07;;;6.80;;
4756;SDS011;2392;52.578;13.426;2024-03-23T01:03:47;29.97;;;6.73;;
4756;SDS011;2392;52.578;13.426;2024-03-23T01:06:15;24.87;;;6.33;;
4756;SDS011;2392;52.578;13.426;2024-03-23T01:08:40;27.57;;;6.30;;
4756;SDS011;2392;52.578;13.426;2024-03-23T01:11:07;26.83;;;6.77;;
4756;SDS011;2392;52.578;13.426;2024-03-23T01:13:33;31.93;;;6.57;;
4756;SDS011;2392;52.578;13.426;2024-03-23T01:16:00;30.03;;;6.53;;
4756;SDS011;2392;52.578;13.426;2024-03-23T01:18:25;30.00;;;6.90;;
4756;SDS011;2392;52.578;13.426;2024-03-23T01:20:52;29.50;;;6.30;;
4756;SDS011;2392;52.578;13.426;2024-03-23T01:23:19;27.67;;;6.83;;
4756;SDS011;2392;52.578;13.426;2024-03-23T01:25:51;30.10;;;6.90;;
4756;SDS011;2392;52.578;13.426;2024-03-23T01:28:17;28.70;;;6.60;;
4756;SDS011;2392;52.578;13.426;2024-03-23T01:30:43;28.13;;;7.00;;
4756;SDS011;2392;52.578;13.426;2024-03-23T01:33:09;29.10;;;7.03;;
4756;SDS011;2392;52.578;13.426;2024-03-23T01:35:36;34.67;;;7.37;;
4756;SDS011;2392;52.578;13.426;2024-03-23T01:38:02;34.07;;;7.30;;
4756;SDS011;2392;52.578;13.426;2024-03-23T01:40:30;27.87;;;6.87;;
4756;SDS011;2392;52.578;13.426;2024-03-23T01:42:57;32.03;;;7.47;;
4756;SDS011;2392;52.578;13.426;2024-03-23T01:45:24;30.70;;;7.00;;
4756;SDS011;2392;52.578;13.426;2024-03-23T01:47:50;27.60;;;6.83;;
4756;SDS011;2392;52.578;13.426;2024-03-23T01:50:18;31.23;;;7.07;;
4756;SDS011;2392;52.578;13.426;2024-03-23T01:52:44;26.10;;;6.03;;
4756;SDS011;2392;52.578;13.426;2024-03-23T01:55:11;34.07;;;7.43;;
4756;SDS011;2392;52.578;13.426;2024-03-23T01:57:38;29.57;;;6.90;;
4756;SDS011;2392;52.578;13.426;2024-03-23T02:00:05;29.07;;;6.67;;
4756;SDS011;2392;52.578;13.426;2024-03-23T02:02:40;25.60;;;6.50;;
4756;SDS011;2392;52.578;13.426;2024-03-23T02:05:08;39.97;;;6.80;;
4756;SDS011;2392;52.578;13.426;2024-03-23T02:07:34;31.40;;;7.90;;
4756;SDS011;2392;52.578;13.426;2024-03-23T02:10:01;28.57;;;5.67;;
4756;SDS011;2392;52.578;13.426;2024-03-23T02:12:27;27.40;;;6.80;;
4756;SDS011;2392;52.578;13.426;2024-03-23T02:14:55;25.07;;;6.03;;
4756;SDS011;2392;52.578;13.426;2024-03-23T02:17:20;35.50;;;7.70;;
4756;SDS011;2392;52.578;13.426;2024-03-23T02:19:47;32.83;;;7.53;;
4756;SDS011;2392;52.578;13.426;2024-03-23T02:22:13;34.93;;;7.13;;
4756;SDS011;2392;52.578;13.426;2024-03-23T02:24:42;40.37;;;7.73;;
4756;SDS011;2392;52.578;13.426;2024-03-23T02:27:08;27.87;;;7.67;;
4756;SDS011;2392;52.578;13.426;2024-03-23T02:29:35;36.00;;;6.97;;
4756;SDS011;2392;52.578;13.426;2024-03-23T02:32:00;32.40;;;6.67;;
4756;SDS011;2392;52.578;13.426;2024-03-23T02:34:27;35.73;;;7.50;;
4756;SDS011;2392;52.578;13.426;2024-03-23T02:36:53;30.73;;;7.13;;
4756;SDS011;2392;52.578;13.426;2024-03-23T02:39:19;31.03;;;8.30;;
4756;SDS011;2392;52.578;13.426;2024-03-23T02:41:46;30.50;;;7.60;;
4756;SDS011;2392;52.578;13.426;2024-03-23T02:44:13;33.07;;;8.40;;
4756;SDS011;2392;52.578;13.426;2024-03-23T02:46:39;38.63;;;9.57;;
4756;SDS011;2392;52.578;13.426;2024-03-23T02:49:06;36.67;;;8.27;;
4756;SDS011;2392;52.578;13.426;2024-03-23T02:51:32;41.47;;;7.20;;
4756;SDS011;2392;52.578;13.426;2024-03-23T02:53:59;35.03;;;9.30;;
4756;SDS011;2392;52.578;13.426;2024-03-23T02:56:25;42.73;;;9.30;;
4756;SDS011;2392;52.578;13.426;2024-03-23T02:58:53;29.07;;;7.33;;
4756;SDS011;2392;52.578;13.426;2024-03-23T03:01:19;35.63;;;6.90;;
4756;SDS011;2392;52.578;13.426;2024-03-23T03:03:45;39.53;;;7.70;;
4756;SDS011;2392;52.578;13.426;2024-03-23T03:06:11;29.97;;;7.47;;
4756;SDS011;2392;52.578;13.426;2024-03-23T03:08:48;32.07;;;7.27;;
4756;SDS011;2392;52.578;13.426;2024-03-23T03:11:14;27.00;;;6.37;;
4756;SDS011;2392;52.578;13.426;2024-03-23T03:13:40;30.50;;;6.80;;
4756;SDS011;2392;52.578;13.426;2024-03-23T03:16:09;26.60;;;7.50;;
4756;SDS011;2392;52.578;13.426;2024-03-23T03:18:36;34.23;;;6.70;;
4756;SDS011;2392;52.578;13.426;2024-03-23T03:21:01;32.83;;;7.33;;
4756;SDS011;2392;52.578;13.426;2024-03-23T03:23:30;26.77;;;7.03;;
4756;SDS011;2392;52.578;13.426;2024-03-23T03:25:56;30.73;;;7.90;;
4756;SDS011;2392;52.578;13.426;2024-03-23T03:28:23;29.77;;;7.60;;
4756;SDS011;2392;52.578;13.426;2024-03-23T03:30:48;29.63;;;7.37;;
4756;SDS011;2392;52.578;13.426;2024-03-23T03:33:17;33.87;;;8.10;;
4756;SDS011;2392;52.578;13.426;2024-03-23T03:35:42;28.07;;;7.33;;
4756;SDS011;2392;52.578;13.426;2024-03-23T03:38:10;25.30;;;6.60;;
4756;SDS011;2392;52.578;13.426;2024-03-23T03:40:36;32.00;;;7.00;;
4756;SDS011;2392;52.578;13.426;2024-03-23T03:43:02;28.13;;;6.80;;
4756;SDS011;2392;52.578;13.426;2024-03-23T03:45:28;30.70;;;7.00;;
4756;SDS011;2392;52.578;13.426;2024-03-23T03:47:55;26.40;;;7.10;;
4756;SDS011;2392;52.578;13.426;2024-03-23T03:50:22;28.60;;;7.00;;
4756;SDS011;2392;52.578;13.426;2024-03-23T03:52:49;30.17;;;7.57;;
4756;SDS011;2392;52.578;13.426;2024-03-23T03:55:15;25.90;;;7.73;;
4756;SDS011;2392;52.578;13.426;2024-03-23T03:57:42;30.43;;;6.53;;
4756;SDS011;2392;52.578;13.426;2024-03-23T04:00:09;28.37;;;6.57;;
4756;SDS011;2392;52.578;13.426;2024-03-23T04:02:37;23.03;;;6.43;;
4756;SDS011;2392;52.578;13.426;2024-03-23T04:05:02;23.60;;;6.30;;
4756;SDS011;2392;52.578;13.426;2024-03-23T04:07:31;25.30;;;6.60;;
4756;SDS011;2392;52.578;13.426;2024-03-23T04:09:56;24.70;;;6.53;;
4756;SDS011;2392;52.578;13.426;2024-03-23T04:12:23;24.40;;;6.10;;
4756;SDS011;2392;52.578;13.426;2024-03-23T04:14:49;24.83;;;5.77;;
4756;SDS011;2392;52.578;13.426;2024-03-23T04:17:16;20.57;;;5.50;;
4756;SDS011;2392;52.578;13.426;2024-03-23T04:19:41;23.40;;;6.47;;
4756;SDS011;2392;52.578;13.426;2024-03-23T04:22:08;23.60;;;6.10;;
4756;SDS011;2392;52.578;13.426;2024-03-23T04:24:35;19.93;;;5.63;;
4756;SDS011;2392;52.578;13.426;2024-03-23T04:27:02;25.30;;;5.37;;
4756;SDS011;2392;52.578;13.426;2024-03-23T04:29:28;23.47;;;5.73;;
4756;SDS011;2392;52.578;13.426;2024-03-23T04:31:54;21.20;;;5.50;;
4756;SDS011;2392;52.578;13.426;2024-03-23T04:34:21;28.27;;;6.00;;
4756;SDS011;2392;52.578;13.426;2024-03-23T04:36:48;22.80;;;5.13;;
4756;SDS011;2392;52.578;13.426;2024-03-23T04:39:14;24.10;;;5.20;;
4756;SDS011;2392;52.578;13.426;2024-03-23T04:41:41;20.50;;;5.53;;
4756;SDS011;2392;52.578;13.426;2024-03-23T04:44:08;26.13;;;6.20;;
4756;SDS011;2392;52.578;13.426;2024-03-23T04:46:35;21.40;;;5.50;;
4756;SDS011;2392;52.578;13.426;2024-03-23T04:49:01;23.47;;;6.00;;
4756;SDS011;2392;52.578;13.426;2024-03-23T04:51:34;24.07;;;6.10;;
4756;SDS011;2392;52.578;13.426;2024-03-23T04:54:02;20.70;;;5.80;;
4756;SDS011;2392;52.578;13.426;2024-03-23T04:56:30;22.03;;;5.30;;
4756;SDS011;2392;52.578;13.426;2024-03-23T04:58:59;22.43;;;5.77;;
4756;SDS011;2392;52.578;13.426;2024-03-23T05:01:26;21.27;;;4.90;;
4756;SDS011;2392;52.578;13.426;2024-03-23T05:03:53;20.63;;;5.30;;
4756;SDS011;2392;52.578;13.426;2024-03-23T05:06:19;22.13;;;5.10;;
4756;SDS011;2392;52.578;13.426;2024-03-23T05:08:45;26.83;;;5.77;;
4756;SDS011;2392;52.578;13.426;2024-03-23T05:11:12;24.57;;;5.40;;
4756;SDS011;2392;52.578;13.426;2024-03-23T05:13:38;25.50;;;5.70;;
4756;SDS011;2392;52.578;13.426;2024-03-23T05:16:06;20.27;;;5.33;;
4756;SDS011;2392;52.578;13.426;2024-03-23T05:18:31;23.53;;;5.30;;
4756;SDS011;2392;52.578;13.426;2024-03-23T05:20:58;18.70;;;5.10;;
4756;SDS011;2392;52.578;13.426;2024-03-23T05:23:24;25.60;;;5.50;;
4756;SDS011;2392;52.578;13.426;2024-03-23T05:25:51;24.20;;;5.13;;
4756;SDS011;2392;52.578;13.426;2024-03-23T05:28:18;21.03;;;5.97;;
4756;SDS011;2392;52.578;13.426;2024-03-23T05:30:49;19.47;;;5.23;;
4756;SDS011;2392;52.578;13.426;2024-03-23T05:33:17;19.23;;;5.07;;
4756;SDS011;2392;52.578;13.426;2024-03-23T05:35:44;21.60;;;5.70;;
4756;SDS011;2392;52.578;13.426;2024-03-23T05:38:09;23.97;;;5.60;;
4756;SDS011;2392;52.578;13.426;2024-03-23T05:40:36;18.97;;;4.90;;
4756;SDS011;2392;52.578;13.426;2024-03-23T05:43:05;18.23;;;5.20;;
4756;SDS011;2392;52.578;13.426;2024-03-23T05:45:31;24.50;;;5.60;;
4756;SDS011;2392;52.578;13.426;2024-03-23T05:47:57;25.43;;;5.80;;
4756;SDS011;2392;52.578;13.426;2024-03-23T05:50:25;19.83;;;5.50;;
4756;SDS011;2392;52.578;13.426;2024-03-23T05:52:51;21.27;;;5.40;;
4756;SDS011;2392;52.578;13.426;2024-03-23T05:55:18;23.37;;;5.90;;
4756;SDS011;2392;52.578;13.426;2024-03-23T05:57:43;22.40;;;5.90;;
4756;SDS011;2392;52.578;13.426;2024-03-23T06:00:10;29.93;;;6.70;;
4756;SDS011;2392;52.578;13.426;2024-03-23T06:02:41;24.07;;;6.07;;
4756;SDS011;2392;52.578;13.426;2024-03-23T06:05:09;24.97;;;5.70;;
4756;SDS011;2392;52.578;13.426;2024-03-23T06:07:36;27.47;;;5.50;;
4756;SDS011;2392;52.578;13.426;2024-03-23T06:10:03;22.10;;;7.03;;
4756;SDS011;2392;52.578;13.426;2024-03-23T06:12:30;24.07;;;6.30;;
4756;SDS011;2392;52.578;13.426;2024-03-23T06:14:57;22.40;;;5.20;;
4756;SDS011;2392;52.578;13.426;2024-03-23T06:17:22;24.37;;;4.93;;
4756;SDS011;2392;52.578;13.426;2024-03-23T06:19:49;27.83;;;6.13;;
4756;SDS011;2392;52.578;13.426;2024-03-23T06:22:15;20.30;;;5.63;;
4756;SDS011;2392;52.578;13.426;2024-03-23T06:24:43;29.07;;;5.77;;
4756;SDS011;2392;52.578;13.426;2024-03-23T06:27:09;23.30;;;6.50;;
4756;SDS011;2392;52.578;13.426;2024-03-23T06:29:36;23.73;;;6.10;;
4756;SDS011;2392;52.578;13.426;2024-03-23T06:32:01;27.37;;;5.87;;
4756;SDS011;2392;52.578;13.426;2024-03-23T06:34:29;24.70;;;6.43;;
4756;SDS011;2392;52.578;13.426;2024-03-23T06:36:55;24.13;;;5.33;;
4756;SDS011;2392;52.578;13.426;2024-03-23T06:39:21;21.77;;;6.03;;
4756;SDS011;2392;52.578;13.426;2024-03-23T06:41:52;19.57;;;5.70;;
4756;SDS011;2392;52.578;13.426;2024-03-23T06:44:19;29.10;;;6.30;;
4756;SDS011;2392;52.578;13.426;2024-03-23T06:46:45;23.93;;;6.00;;
4756;SDS011;2392;52.578;13.426;2024-03-23T06:49:12;25.67;;;5.53;;
4756;SDS011;2392;52.578;13.426;2024-03-23T06:51:38;22.10;;;5.63;;
4756;SDS011;2392;52.578;13.426;2024-03-23T06:54:05;21.40;;;5.93;;
4756;SDS011;2392;52.578;13.426;2024-03-23T06:56:31;22.83;;;6.10;;
4756;SDS011;2392;52.578;13.426;2024-03-23T06:58:59;26.57;;;6.10;;
4756;SDS011;2392;52.578;13.426;2024-03-23T07:01:25;21.90;;;6.23;;
4756;SDS011;2392;52.578;13.426;2024-03-23T07:03:53;29.77;;;7.60;;
4756;SDS011;2392;52.578;13.426;2024-03-23T07:06:19;24.73;;;6.13;;
4756;SDS011;2392;52.578;13.426;2024-03-23T07:08:46;22.10;;;5.90;;
4756;SDS011;2392;52.578;13.426;2024-03-23T07:11:12;21.63;;;5.80;;
4756;SDS011;2392;52.578;13.426;2024-03-23T07:13:38;21.30;;;6.40;;
4756;SDS011;2392;52.578;13.426;2024-03-23T07:16:05;28.27;;;5.93;;
4756;SDS011;2392;52.578;13.426;2024-03-23T07:18:32;22.40;;;5.93;;
4756;SDS011;2392;52.578;13.426;2024-03-23T07:20:59;22.30;;;5.70;;
4756;SDS011;2392;52.578;13.426;2024-03-23T07:23:26;25.27;;;6.50;;
4756;SDS011;2392;52.578;13.426;2024-03-23T07:25:57;21.50;;;6.53;;
4756;SDS011;2392;52.578;13.426;2024-03-23T07:28:24;22.63;;;6.20;;
4756;SDS011;2392;52.578;13.426;2024-03-23T07:31:00;29.10;;;6.03;;
4756;SDS011;2392;52.578;13.426;2024-03-23T07:33:32;25.73;;;5.90;;
4756;SDS011;2392;52.578;13.426;2024-03-23T07:35:58;23.30;;;5.97;;
4756;SDS011;2392;52.578;13.426;2024-03-23T07:38:26;25.87;;;6.60;;
4756;SDS011;2392;52.578;13.426;2024-03-23T07:40:52;22.47;;;5.90;;
4756;SDS011;2392;52.578;13.426;2024-03-23T07:43:21;24.10;;;6.27;;
4756;SDS011;2392;52.578;13.426;2024-03-23T07:45:50;22.63;;;5.50;;
4756;SDS011;2392;52.578;13.426;2024-03-23T07:48:18;21.27;;;5.70;;
4756;SDS011;2392;52.578;13.426;2024-03-23T07:50:45;22.90;;;5.57;;
4756;SDS011;2392;52.578;13.426;2024-03-23T07:53:11;26.37;;;5.80;;
4756;SDS011;2392;52.578;13.426;2024-03-23T07:55:37;24.40;;;5.30;;
4756;SDS011;2392;52.578;13.426;2024-03-23T07:58:04;22.80;;;6.40;;
4756;SDS011;2392;52.578;13.426;2024-03-23T08:00:29;22.63;;;5.93;;
4756;SDS011;2392;52.578;13.426;2024-03-23T08:02:56;22.20;;;5.80;;
4756;SDS011;2392;52.578;13.426;2024-03-23T08:05:22;22.13;;;5.37;;
4756;SDS011;2392;52.578;13.426;2024-03-23T08:07:53;20.90;;;5.30;;
4756;SDS011;2392;52.578;13.426;2024-03-23T08:10:18;21.30;;;5.53;;
4756;SDS011;2392;52.578;13.426;2024-03-23T08:12:45;23.87;;;5.20;;
4756;SDS011;2392;52.578;13.426;2024-03-23T08:15:11;23.23;;;6.07;;
4756;SDS011;2392;52.578;13.426;2024-03-23T08:17:38;25.53;;;6.10;;
4756;SDS011;2392;52.578;13.426;2024-03-23T08:20:04;25.80;;;5.07;;
4756;SDS011;2392;52.578;13.426;2024-03-23T08:22:33;22.87;;;6.63;;
4756;SDS011;2392;52.578;13.426;2024-03-23T08:25:00;22.40;;;5.67;;
4756;SDS011;2392;52.578;13.426;2024-03-23T08:27:27;25.20;;;5.50;;
4756;SDS011;2392;52.578;13.426;2024-03-23T08:29:53;22.10;;;6.03;;
4756;SDS011;2392;52.578;13.426;2024-03-23T08:32:19;21.50;;;6.00;;
4756;SDS011;2392;52.578;13.426;2024-03-23T08:34:45;25.93;;;7.13;;
4756;SDS011;2392;52.578;13.426;2024-03-23T08:37:12;21.70;;;6.20;;
4756;SDS011;2392;52.578;13.426;2024-03-23T08:39:37;26.00;;;6.50;;
4756;SDS011;2392;52.578;13.426;2024-03-23T08:42:06;21.40;;;5.53;;
4756;SDS011;2392;52.578;13.426;2024-03-23T08:44:31;22.03;;;5.73;;
4756;SDS011;2392;52.578;13.426;2024-03-23T08:46:58;24.37;;;6.40;;
4756;SDS011;2392;52.578;13.426;2024-03-23T08:49:24;25.73;;;6.37;;
4756;SDS011;2392;52.578;13.426;2024-03-23T08:51:51;24.20;;;5.73;;
4756;SDS011;2392;52.578;13.426;2024-03-23T08:54:17;18.67;;;4.93;;
4756;SDS011;2392;52.578;13.426;2024-03-23T08:56:45;20.17;;;5.60;;
4756;SDS011;2392;52.578;13.426;2024-03-23T08:59:12;20.93;;;5.17;;
4756;SDS011;2392;52.578;13.426;2024-03-23T09:01:39;25.80;;;6.00;;
4756;SDS011;2392;52.578;13.426;2024-03-23T09:04:04;20.63;;;5.50;;
4756;SDS011;2392;52.578;13.426;2024-03-23T09:06:31;24.73;;;5.70;;
4756;SDS011;2392;52.578;13.426;2024-03-23T09:08:57;24.43;;;5.23;;
4756;SDS011;2392;52.578;13.426;2024-03-23T09:11:23;26.10;;;6.00;;
4756;SDS011;2392;52.578;13.426;2024-03-23T09:13:49;20.03;;;5.67;;
4756;SDS011;2392;52.578;13.426;2024-03-23T09:16:17;21.17;;;5.50;;
4756;SDS011;2392;52.578;13.426;2024-03-23T09:18:43;23.57;;;5.97;;
4756;SDS011;2392;52.578;13.426;2024-03-23T09:21:10;20.03;;;5.60;;
4756;SDS011;2392;52.578;13.426;2024-03-23T09:23:38;21.03;;;5.63;;
4756;SDS011;2392;52.578;13.426;2024-03-23T09:26:04;23.00;;;5.47;;
4756;SDS011;2392;52.578;13.426;2024-03-23T09:28:32;19.03;;;4.70;;
4756;SDS011;2392;52.578;13.426;2024-03-23T09:31:01;21.50;;;5.63;;
4756;SDS011;2392;52.578;13.426;2024-03-23T09:33:29;20.43;;;5.20;;
4756;SDS011;2392;52.578;13.426;2024-03-23T09:35:55;21.00;;;5.33;;
4756;SDS011;2392;52.578;13.426;2024-03-23T09:38:21;18.57;;;5.07;;
4756;SDS011;2392;52.578;13.426;2024-03-23T09:40:48;19.70;;;4.60;;
4756;SDS011;2392;52.578;13.426;2024-03-23T09:43:18;25.83;;;5.70;;
4756;SDS011;2392;52.578;13.426;2024-03-23T09:45:45;22.33;;;5.60;;
4756;SDS011;2392;52.578;13.426;2024-03-23T09:48:11;23.73;;;5.47;;
4756;SDS011;2392;52.578;13.426;2024-03-23T09:50:41;19.13;;;4.80;;
4756;SDS011;2392;52.578;13.426;2024-03-23T09:53:08;21.40;;;5.30;;
4756;SDS011;2392;52.578;13.426;2024-03-23T09:55:36;22.17;;;4.63;;
4756;SDS011;2392;52.578;13.426;2024-03-23T09:58:02;19.47;;;5.37;;
4756;SDS011;2392;52.578;13.426;2024-03-23T10:00:30;22.93;;;4.83;;
4756;SDS011;2392;52.578;13.426;2024-03-23T10:02:56;24.43;;;5.60;;
4756;SDS011;2392;52.578;13.426;2024-03-23T10:05:23;23.10;;;6.00;;
4756;SDS011;2392;52.578;13.426;2024-03-23T10:07:50;26.13;;;5.80;;
4756;SDS011;2392;52.578;13.426;2024-03-23T10:10:17;21.73;;;5.80;;
4756;SDS011;2392;52.578;13.426;2024-03-23T10:12:46;23.40;;;5.10;;
4756;SDS011;2392;52.578;13.426;2024-03-23T10:15:17;23.40;;;5.50;;
4756;SDS011;2392;52.578;13.426;2024-03-23T10:17:45;24.10;;;5.80;;
4756;SDS011;2392;52.578;13.426;2024-03-23T10:20:12;20.30;;;5.90;;
4756;SDS011;2392;52.578;13.426;2024-03-23T10:22:43;25.13;;;6.00;;
4756;SDS011;2392;52.578;13.426;2024-03-23T10:25:12;22.77;;;6.13;;
4756;SDS011;2392;52.578;13.426;2024-03-23T10:27:39;20.83;;;5.33;;
4756;SDS011;2392;52.578;13.426;2024-03-23T10:30:09;21.90;;;5.60;;
4756;SDS011;2392;52.578;13.426;2024-03-23T10:32:36;20.80;;;5.60;;
4756;SDS011;2392;52.578;13.426;2024-03-23T10:35:16;27.17;;;5.50;;
4756;SDS011;2392;52.578;13.426;2024-03-23T10:37:44;21.33;;;6.10;;
4756;SDS011;2392;52.578;13.426;2024-03-23T10:40:13;23.53;;;5.03;;
4756;SDS011;2392;52.578;13.426;2024-03-23T10:42:38;25.53;;;5.50;;
4756;SDS011;2392;52.578;13.426;2024-03-23T10:45:06;24.03;;;5.80;;
4756;SDS011;2392;52.578;13.426;2024-03-23T10:47:33;21.23;;;5.70;;
4756;SDS011;2392;52.578;13.426;2024-03-23T10:50:01;20.20;;;5.30;;
4756;SDS011;2392;52.578;13.426;2024-03-23T10:52:28;21.53;;;5.87;;
4756;SDS011;2392;52.578;13.426;2024-03-23T10:54:55;21.70;;;5.57;;
4756;SDS011;2392;52.578;13.426;2024-03-23T10:57:25;22.20;;;5.90;;
4756;SDS011;2392;52.578;13.426;2024-03-23T10:59:57;23.10;;;6.20;;
4756;SDS011;2392;52.578;13.426;2024-03-23T11:02:23;26.40;;;6.40;;
4756;SDS011;2392;52.578;13.426;2024-03-23T11:04:51;20.87;;;5.87;;
4756;SDS011;2392;52.578;13.426;2024-03-23T11:07:30;23.23;;;6.00;;
4756;SDS011;2392;52.578;13.426;2024-03-23T11:09:58;23.10;;;5.83;;
4756;SDS011;2392;52.578;13.426;2024-03-23T11:12:26;22.83;;;5.83;;
4756;SDS011;2392;52.578;13.426;2024-03-23T11:14:57;23.50;;;5.90;;
4756;SDS011;2392;52.578;13.426;2024-03-23T11:17:25;21.93;;;5.63;;
4756;SDS011;2392;52.578;13.426;2024-03-23T11:19:53;25.03;;;6.53;;
4756;SDS011;2392;52.578;13.426;2024-03-23T11:22:40;19.20;;;5.73;;
4756;SDS011;2392;52.578;13.426;2024-03-23T11:25:15;22.67;;;5.30;;
4756;SDS011;2392;52.578;13.426;2024-03-23T11:27:43;25.80;;;6.00;;
4756;SDS011;2392;52.578;13.426;2024-03-23T11:30:14;32.97;;;5.60;;
4756;SDS011;2392;52.578;13.426;2024-03-23T11:32:42;21.87;;;5.43;;
4756;SDS011;2392;52.578;13.426;2024-03-23T11:35:09;24.70;;;6.00;;
4756;SDS011;2392;52.578;13.426;2024-03-23T11:37:35;23.33;;;5.63;;
4756;SDS011;2392;52.578;13.426;2024-03-23T11:40:18;21.80;;;5.60;;
4756;SDS011;2392;52.578;13.426;2024-03-23T11:42:46;23.90;;;6.30;;
4756;SDS011;2392;52.578;13.426;2024-03-23T11:45:13;21.83;;;5.50;;
4756;SDS011;2392;52.578;13.426;2024-03-23T11:47:39;20.53;;;5.23;;
4756;SDS011;2392;52.578;13.426;2024-03-23T11:50:06;23.87;;;5.73;;
4756;SDS011;2392;52.578;13.426;2024-03-23T11:52:32;23.83;;;6.30;;
4756;SDS011;2392;52.578;13.426;2024-03-23T11:55:05;20.30;;;5.33;;
4756;SDS011;2392;52.578;13.426;2024-03-23T11:57:33;22.03;;;6.00;;
4756;SDS011;2392;52.578;13.426;2024-03-23T12:00:01;22.40;;;6.40;;
4756;SDS011;2392;52.578;13.426;2024-03-23T12:02:27;22.10;;;5.13;;
4756;SDS011;2392;52.578;13.426;2024-03-23T12:04:54;26.97;;;5.80;;
4756;SDS011;2392;52.578;13.426;2024-03-23T12:07:20;23.73;;;6.10;;
4756;SDS011;2392;52.578;13.426;2024-03-23T12:09:47;22.03;;;6.07;;
4756;SDS011;2392;52.578;13.426;2024-03-23T12:12:28;20.43;;;5.77;;
4756;SDS011;2392;52.578;13.426;2024-03-23T12:15:03;24.40;;;6.07;;
4756;SDS011;2392;52.578;13.426;2024-03-23T12:17:31;25.13;;;6.03;;
4756;SDS011;2392;52.578;13.426;2024-03-23T12:22:28;30.63;;;6.93;;
4756;SDS011;2392;52.578;13.426;2024-03-23T12:24:55;25.83;;;6.30;;
4756;SDS011;2392;52.578;13.426;2024-03-23T12:27:22;27.97;;;6.10;;
4756;SDS011;2392;52.578;13.426;2024-03-23T12:29:49;28.23;;;6.80;;
4756;SDS011;2392;52.578;13.426;2024-03-23T12:32:16;20.90;;;6.10;;
4756;SDS011;2392;52.578;13.426;2024-03-23T12:34:43;22.30;;;6.40;;
4756;SDS011;2392;52.578;13.426;2024-03-23T12:37:09;19.90;;;5.30;;
4756;SDS011;2392;52.578;13.426;2024-03-23T12:39:37;26.20;;;5.70;;
4756;SDS011;2392;52.578;13.426;2024-03-23T12:42:03;21.00;;;5.13;;
4756;SDS011;2392;52.578;13.426;2024-03-23T12:44:30;24.53;;;6.10;;
4756;SDS011;2392;52.578;13.426;2024-03-23T12:46:56;23.53;;;6.80;;
4756;SDS011;2392;52.578;13.426;2024-03-23T12:49:24;25.53;;;6.17;;
4756;SDS011;2392;52.578;13.426;2024-03-23T12:51:53;27.20;;;6.07;;
4756;SDS011;2392;52.578;13.426;2024-03-23T12:54:21;28.87;;;5.73;;
4756;SDS011;2392;52.578;13.426;2024-03-23T12:56:47;21.63;;;5.83;;
4756;SDS011;2392;52.578;13.426;2024-03-23T12:59:14;23.80;;;5.50;;
4756;SDS011;2392;52.578;13.426;2024-03-23T13:01:40;25.07;;;6.23;;
4756;SDS011;2392;52.578;13.426;2024-03-23T13:04:06;20.00;;;5.43;;
4756;SDS011;2392;52.578;13.426;2024-03-23T13:06:33;21.70;;;5.57;;
4756;SDS011;2392;52.578;13.426;2024-03-23T13:09:00;26.10;;;5.00;;
4756;SDS011;2392;52.578;13.426;2024-03-23T13:11:26;24.33;;;5.13;;
4756;SDS011;2392;52.578;13.426;2024-03-23T13:13:53;22.80;;;5.27;;
4756;SDS011;2392;52.578;13.426;2024-03-23T13:16:19;23.00;;;5.70;;
4756;SDS011;2392;52.578;13.426;2024-03-23T13:18:47;19.60;;;5.73;;
4756;SDS011;2392;52.578;13.426;2024-03-23T13:21:12;20.97;;;5.27;;
4756;SDS011;2392;52.578;13.426;2024-03-23T13:23:40;23.23;;;5.77;;
4756;SDS011;2392;52.578;13.426;2024-03-23T13:26:07;23.67;;;5.70;;
4756;SDS011;2392;52.578;13.426;2024-03-23T13:28:34;21.20;;;5.70;;
4756;SDS011;2392;52.578;13.426;2024-03-23T13:31:01;20.67;;;5.63;;
4756;SDS011;2392;52.578;13.426;2024-03-23T13:33:28;22.30;;;6.07;;
4756;SDS011;2392;52.578;13.426;2024-03-23T13:35:55;27.63;;;6.47;;
4756;SDS011;2392;52.578;13.426;2024-03-23T13:38:22;22.20;;;5.60;;
4756;SDS011;2392;52.578;13.426;2024-03-23T13:40:55;26.23;;;6.57;;
4756;SDS011;2392;52.578;13.426;2024-03-23T13:43:24;23.90;;;5.97;;
4756;SDS011;2392;52.578;13.426;2024-03-23T13:45:52;23.00;;;5.73;;
4756;SDS011;2392;52.578;13.426;2024-03-23T13:48:21;22.53;;;6.07;;
4756;SDS011;2392;52.578;13.426;2024-03-23T13:50:56;20.63;;;5.63;;
4756;SDS011;2392;52.578;13.426;2024-03-23T13:53:23;24.83;;;6.53;;
4756;SDS011;2392;52.578;13.426;2024-03-23T13:55:49;23.73;;;6.10;;
4756;SDS011;2392;52.578;13.426;2024-03-23T13:58:17;26.00;;;6.47;;
4756;SDS011;2392;52.578;13.426;2024-03-23T14:00:43;25.93;;;6.03;;
4756;SDS011;2392;52.578;13.426;2024-03-23T14:03:09;22.20;;;5.67;;
4756;SDS011;2392;52.578;13.426;2024-03-23T14:05:35;23.13;;;5.70;;
4756;SDS011;2392;52.578;13.426;2024-03-23T14:08:03;23.10;;;5.80;;
4756;SDS011;2392;52.578;13.426;2024-03-23T14:10:30;23.83;;;6.10;;
4756;SDS011;2392;52.578;13.426;2024-03-23T14:12:56;23.47;;;6.17;;
4756;SDS011;2392;52.578;13.426;2024-03-23T14:15:24;27.00;;;6.20;;
4756;SDS011;2392;52.578;13.426;2024-03-23T14:17:50;24.70;;;6.20;;
4756;SDS011;2392;52.578;13.426;2024-03-23T14:20:16;27.10;;;6.50;;
4756;SDS011;2392;52.578;13.426;2024-03-23T14:22:43;22.17;;;6.07;;
4756;SDS011;2392;52.578;13.426;2024-03-23T14:25:09;32.87;;;6.17;;
4756;SDS011;2392;52.578;13.426;2024-03-23T14:27:36;26.10;;;6.63;;
4756;SDS011;2392;52.578;13.426;2024-03-23T14:30:03;22.90;;;5.60;;
4756;SDS011;2392;52.578;13.426;2024-03-23T14:32:32;38.33;;;6.83;;
4756;SDS011;2392;52.578;13.426;2024-03-23T14:34:59;24.10;;;6.20;;
4756;SDS011;2392;52.578;13.426;2024-03-23T14:37:26;22.70;;;6.20;;
4756;SDS011;2392;52.578;13.426;2024-03-23T14:39:51;19.13;;;5.23;;
4756;SDS011;2392;52.578;13.426;2024-03-23T14:42:18;22.43;;;5.70;;
4756;SDS011;2392;52.578;13.426;2024-03-23T14:44:44;18.87;;;4.80;;
4756;SDS011;2392;52.578;13.426;2024-03-23T14:47:10;21.10;;;5.90;;
4756;SDS011;2392;52.578;13.426;2024-03-23T14:49:37;18.33;;;4.67;;
4756;SDS011;2392;52.578;13.426;2024-03-23T14:52:04;18.50;;;4.70;;
4756;SDS011;2392;52.578;13.426;2024-03-23T14:54:30;18.73;;;4.90;;
4756;SDS011;2392;52.578;13.426;2024-03-23T14:56:57;20.10;;;5.40;;
4756;SDS011;2392;52.578;13.426;2024-03-23T14:59:23;19.30;;;5.10;;
4756;SDS011;2392;52.578;13.426;2024-03-23T15:01:50;20.00;;;5.10;;
4756;SDS011;2392;52.578;13.426;2024-03-23T15:04:16;18.90;;;4.70;;
4756;SDS011;2392;52.578;13.426;2024-03-23T15:06:44;22.10;;;5.40;;
4756;SDS011;2392;52.578;13.426;2024-03-23T15:09:14;19.20;;;5.30;;
4756;SDS011;2392;52.578;13.426;2024-03-23T15:11:41;20.50;;;5.63;;
4756;SDS011;2392;52.578;13.426;2024-03-23T15:14:07;19.93;;;5.87;;
4756;SDS011;2392;52.578;13.426;2024-03-23T15:16:34;22.30;;;6.07;;
4756;SDS011;2392;52.578;13.426;2024-03-23T15:18:59;27.23;;;7.10;;
4756;SDS011;2392;52.578;13.426;2024-03-23T15:21:26;22.10;;;6.27;;
4756;SDS011;2392;52.578;13.426;2024-03-23T15:23:57;21.10;;;6.20;;
4756;SDS011;2392;52.578;13.426;2024-03-23T15:26:23;22.83;;;6.60;;
4756;SDS011;2392;52.578;13.426;2024-03-23T15:28:49;21.93;;;6.10;;
4756;SDS011;2392;52.578;13.426;2024-03-23T15:31:35;21.47;;;5.80;;
4756;SDS011;2392;52.578;13.426;2024-03-23T15:34:01;21.50;;;5.83;;
4756;SDS011;2392;52.578;13.426;2024-03-23T15:36:28;23.07;;;5.80;;
4756;SDS011;2392;52.578;13.426;2024-03-23T15:38:54;24.13;;;7.23;;
4756;SDS011;2392;52.578;13.426;2024-03-23T15:41:22;27.70;;;5.90;;
4756;SDS011;2392;52.578;13.426;2024-03-23T15:43:48;21.57;;;6.00;;